Time;durP1;ratioP1;P1;durP2;ratioP2;P2;SDS_P1;SDS_P2;PMS_P1;PMS_P2;Temp;Humidity;BMP_temperature;BMP_pressure;BME280_temperature;BME280_humidity;BME280_pressure;Samples;Min_cycle;Max_cycle;Signal;HPM_P1;HPM_P2
2024/02/22 00:01:16;;;;;;;;;;;;;;;;;;;;;
2024/02/22 00:08:57;;;;;;;19.85;3.63;;;;;;;8.24;100.00;97588.03;5106257;28;20022;-93
2024/02/22 00:16:39;;;;;;;;;;;;;;;;;;;;;
2024/02/22 00:24:31;;;;;;;12.95;2.42;;;;;;;8.00;100.00;97560.44;5033384;28;20101;-93
2024/02/22 00:27:08;;;;;;;15.70;2.92;;;;;;;7.98;100.00;97573.78;5008107;28;20045;-94
2024/02/22 00:29:59;;;;;;;11.90;3.08;;;;;;;7.97;100.00;97564.28;4978409;28;20038;-95
2024/02/22 00:48:16;;;;;;;11.77;2.15;;;;;;;7.85;100.00;97558.78;5104934;28;20097;-91
2024/02/22 00:50:56;;;;;;;14.27;2.65;;;;;;;7.88;100.00;97550.53;5061859;28;20235;-92
2024/02/22 00:57:54;;;;;;;11.88;1.40;;;;;;;7.77;100.00;97572.91;5094213;28;20034;-95
2024/02/22 01:01:14;;;;;;;8.38;1.02;;;;;;;7.61;100.00;97566.22;5090496;28;20051;-93
2024/02/22 01:08:17;;;;;;;7.38;0.73;;;;;;;7.48;100.00;97581.91;5089838;28;20043;-94
2024/02/22 01:14:53;;;;;;;7.85;0.60;;;;;;;7.30;100.00;97581.44;5066369;28;20082;-95
2024/02/22 01:21:13;;;;;;;6.32;0.90;;;;;;;7.27;100.00;97568.69;5054887;28;20033;-95
2024/02/22 01:31:48;;;;;;;1.88;0.40;;;;;;;7.06;100.00;97587.97;5039942;28;20037;-94
2024/02/22 01:34:41;;;;;;;4.30;0.80;;;;;;;7.07;100.00;97574.63;5041523;28;20067;-95
2024/02/22 01:37:39;;;;;;;5.30;0.82;;;;;;;7.13;100.00;97565.19;5069431;28;20044;-93
2024/02/22 01:40:22;;;;;;;3.53;0.50;;;;;;;7.00;100.00;97546.72;5053115;28;20725;-96
2024/02/22 01:43:25;;;;;;;3.35;0.50;;;;;;;7.04;100.00;97561.88;5062137;28;20039;-95
2024/02/22 01:47:00;;;;;;;1.88;0.30;;;;;;;7.03;100.00;97527.94;5064330;28;20039;-94
2024/02/22 01:54:17;;;;;;;3.13;0.40;;;;;;;6.96;100.00;97485.88;5068011;28;20028;-94
2024/02/22 02:01:12;;;;;;;2.70;0.70;;;;;;;7.02;100.00;97402.91;5045636;28;20131;-94
2024/02/22 02:04:03;;;;;;;2.72;0.77;;;;;;;7.04;100.00;97366.75;5072637;28;20148;-95
2024/02/22 02:07:15;;;;;;;;;;;;;;;;;;;;;
2024/02/22 02:10:21;;;;;;;4.05;0.43;;;;;;;7.15;100.00;97315.47;5075448;28;20059;-93
2024/02/22 02:12:48;;;;;;;2.33;0.50;;;;;;;7.12;100.00;97287.75;5050328;28;20031;-93
2024/02/22 02:15:19;;;;;;;2.47;0.75;;;;;;;7.12;100.00;97272.00;5049233;28;20055;-93
2024/02/22 02:21:35;;;;;;;4.93;0.43;;;;;;;7.12;100.00;97340.28;5064139;28;20053;-94
2024/02/22 02:25:04;;;;;;;3.20;0.45;;;;;;;7.09;100.00;97366.16;5037970;28;20095;-93
2024/02/22 02:28:21;;;;;;;5.90;0.45;;;;;;;7.02;100.00;97380.09;5047073;28;20097;-94
2024/02/22 02:32:02;;;;;;;;;;;;;;;;;;;;;
2024/02/22 02:35:42;;;;;;;2.42;0.35;;;;;;;7.03;100.00;97362.50;5067936;28;20039;-94
2024/02/22 02:39:05;;;;;;;3.17;0.40;;;;;;;7.05;100.00;97357.84;5064487;28;20128;-92
2024/02/22 02:42:16;;;;;;;3.90;0.38;;;;;;;6.99;100.00;97338.44;5032188;28;20052;-94
2024/02/22 02:44:56;;;;;;;3.10;0.52;;;;;;;6.93;100.00;97341.84;5013497;28;20041;-95
2024/02/22 02:47:45;;;;;;;2.05;0.45;;;;;;;7.00;100.00;97328.75;5045889;28;20043;-94
2024/02/22 02:50:11;;;;;;;3.13;0.28;;;;;;;6.92;100.00;97295.59;5063306;28;20035;-94
2024/02/22 02:52:53;;;;;;;2.83;0.30;;;;;;;6.94;100.00;97285.72;5054997;28;20040;-93
2024/02/22 02:57:08;;;;;;;;;;;;;;;;;;;;;
2024/02/22 03:00:03;;;;;;;3.58;0.40;;;;;;;6.87;100.00;97253.38;5009836;28;20057;-95
2024/02/22 03:02:50;;;;;;;3.38;0.65;;;;;;;6.91;100.00;97265.13;4979110;28;20053;-94
2024/02/22 03:05:55;;;;;;;1.75;0.45;;;;;;;6.76;100.00;97268.72;4965290;28;20498;-95
2024/02/22 03:21:32;;;;;;;4.15;0.52;;;;;;;6.60;100.00;97304.00;4914202;28;20393;-94
2024/02/22 03:31:52;;;;;;;2.22;0.55;;;;;;;6.44;100.00;97287.59;4957243;28;20074;-94
2024/02/22 03:38:05;;;;;;;4.32;0.70;;;;;;;6.47;100.00;97273.28;5000967;28;20068;-93
2024/02/22 03:40:54;;;;;;;5.10;0.77;;;;;;;6.47;100.00;97272.47;5036436;28;20151;-92
2024/02/22 03:44:00;;;;;;;;;;;;;;;;;;;;;
2024/02/22 03:47:16;;;;;;;3.35;0.30;;;;;;;6.47;100.00;97268.03;5055833;28;20433;-95
2024/02/22 03:54:39;;;;;;;1.23;0.25;;;;;;;6.35;100.00;97262.53;5009224;28;20141;-94
2024/02/22 03:57:18;;;;;;;2.83;0.43;;;;;;;6.38;100.00;97249.03;5041350;28;20043;-94
2024/02/22 03:59:47;;;;;;;3.78;0.60;;;;;;;6.36;100.00;97242.34;5042293;28;20035;-94
2024/02/22 04:02:15;;;;;;;1.33;0.38;;;;;;;6.39;100.00;97234.09;5044662;28;20098;-93
2024/02/22 04:04:54;;;;;;;4.28;0.52;;;;;;;6.44;100.00;97229.88;5050752;28;20109;-93
2024/02/22 04:07:25;;;;;;;3.25;0.60;;;;;;;6.42;100.00;97238.94;5058961;28;20495;-93
2024/02/22 04:09:54;;;;;;;3.70;0.55;;;;;;;6.44;100.00;97240.38;5038837;28;20040;-94
2024/02/22 04:12:21;;;;;;;3.30;0.20;;;;;;;6.42;100.00;97250.25;5038377;28;20477;-93
2024/02/22 04:14:52;;;;;;;3.10;0.40;;;;;;;6.41;100.00;97259.13;5068084;28;20063;-94
2024/02/22 04:17:24;;;;;;;1.52;0.40;;;;;;;6.48;100.00;97264.41;5057484;28;20089;-95
2024/02/22 04:19:52;;;;;;;3.25;0.35;;;;;;;6.42;100.00;97245.00;5041071;28;20115;-93
2024/02/22 04:22:19;;;;;;;1.60;0.40;;;;;;;6.45;100.00;97246.41;5056592;28;20032;-94
2024/02/22 04:24:45;;;;;;;1.55;0.30;;;;;;;6.45;100.00;97244.59;5045434;28;20036;-94
2024/02/22 04:27:14;;;;;;;1.38;0.50;;;;;;;6.46;100.00;97234.94;5056763;28;20047;-94
2024/02/22 04:29:52;;;;;;;2.78;0.30;;;;;;;6.43;100.00;97237.94;5043982;28;20028;-93
2024/02/22 04:32:20;;;;;;;1.65;0.30;;;;;;;6.41;100.00;97225.03;5038630;28;20036;-93
2024/02/22 04:34:52;;;;;;;4.80;1.00;;;;;;;6.43;100.00;97209.88;5045161;28;20047;-94
2024/02/22 04:37:18;;;;;;;1.85;0.40;;;;;;;6.35;100.00;97196.97;5055045;28;20123;-94
2024/02/22 04:39:45;;;;;;;3.58;0.30;;;;;;;6.39;100.00;97206.03;5033899;28;20063;-92
2024/02/22 04:42:11;;;;;;;4.07;0.38;;;;;;;6.36;100.00;97214.31;5040761;28;20092;-94
2024/02/22 04:44:40;;;;;;;3.85;0.40;;;;;;;6.40;100.00;97212.09;5043661;28;20032;-94
2024/02/22 04:47:09;;;;;;;6.93;0.57;;;;;;;6.41;100.00;97208.47;5041253;28;20499;-94
2024/02/22 04:49:37;;;;;;;1.60;0.35;;;;;;;6.42;100.00;97212.69;5048145;28;20043;-93
2024/02/22 04:52:07;;;;;;;4.13;0.50;;;;;;;6.44;100.00;97206.28;5056081;28;20040;-93
2024/02/22 04:54:33;;;;;;;3.83;0.65;;;;;;;6.40;100.00;97212.09;5058990;28;20072;-93
2024/02/22 04:56:59;;;;;;;2.70;0.32;;;;;;;6.37;100.00;97205.41;5041035;28;20036;-93
2024/02/22 04:59:26;;;;;;;6.22;0.30;;;;;;;6.32;100.00;97216.50;5040293;28;20031;-93
2024/02/22 05:01:52;;;;;;;4.30;0.40;;;;;;;6.19;100.00;97185.00;5032706;28;20131;-93
2024/02/22 05:04:20;;;;;;;4.78;0.47;;;;;;;6.17;100.00;97171.28;5093859;28;20039;-93
2024/02/22 05:06:47;;;;;;;7.63;0.80;;;;;;;6.15;100.00;97163.59;5061647;28;20459;-93
2024/02/22 05:09:16;;;;;;;2.40;0.32;;;;;;;6.16;100.00;97149.47;5062677;28;20032;-93
2024/02/22 05:11:51;;;;;;;2.78;0.40;;;;;;;6.21;100.00;97143.66;5061278;28;20059;-93
2024/02/22 05:14:20;;;;;;;2.63;0.40;;;;;;;6.17;100.00;97145.06;5052394;28;20028;-93
2024/02/22 05:16:47;;;;;;;8.77;0.55;;;;;;;6.18;100.00;97149.31;5074894;28;20047;-95
2024/02/22 05:19:16;;;;;;;3.75;0.70;;;;;;;6.15;100.00;97142.63;5076062;28;20687;-94
2024/02/22 05:21:51;;;;;;;2.55;0.45;;;;;;;6.14;100.00;97141.03;5057511;28;20480;-93
2024/02/22 05:24:21;;;;;;;6.55;0.80;;;;;;;6.22;100.00;97140.03;5058928;28;20111;-94
2024/02/22 05:26:50;;;;;;;2.92;0.43;;;;;;;6.18;100.00;97128.31;5064518;28;20037;-93
2024/02/22 05:29:25;;;;;;;2.28;0.50;;;;;;;6.15;100.00;97121.66;5061509;28;20051;-93
2024/02/22 05:31:52;;;;;;;7.18;1.67;;;;;;;6.14;100.00;97090.38;5058275;28;20379;-93
2024/02/22 05:34:18;;;;;;;4.95;0.43;;;;;;;6.15;100.00;97094.59;5050638;28;20042;-94
2024/02/22 05:36:45;;;;;;;6.05;0.55;;;;;;;6.15;100.00;97128.69;5052257;28;20238;-93
2024/02/22 05:39:18;;;;;;;2.25;0.52;;;;;;;6.22;100.00;97153.13;5077202;28;20039;-93
2024/02/22 05:41:44;;;;;;;7.47;0.60;;;;;;;6.12;100.00;97144.81;5066753;28;20031;-93
2024/02/22 05:44:11;;;;;;;2.53;0.35;;;;;;;6.09;100.00;97138.16;5058000;28;20036;-93
2024/02/22 05:46:37;;;;;;;2.33;0.57;;;;;;;6.11;100.00;97124.88;5080468;28;20035;-93
2024/02/22 05:49:06;;;;;;;5.60;0.65;;;;;;;6.07;100.00;97109.53;5066361;28;20134;-92
2024/02/22 05:51:32;;;;;;;1.13;0.20;;;;;;;5.96;100.00;97147.59;5051517;28;20039;-95
2024/02/22 05:54:09;;;;;;;1.98;0.30;;;;;;;5.65;100.00;97135.78;5062601;28;20039;-95
2024/02/22 05:56:51;;;;;;;1.50;0.20;;;;;;;5.40;100.00;97123.16;5073272;28;20100;-94
2024/02/22 05:59:17;;;;;;;3.45;0.20;;;;;;;5.33;100.00;97119.69;5062387;28;20028;-93
2024/02/22 06:02:06;;;;;;;0.65;0.10;;;;;;;5.25;100.00;97110.19;5059114;28;20782;-94
2024/02/22 06:04:45;;;;;;;0.75;0.20;;;;;;;5.18;100.00;97111.94;5059744;28;20488;-94
2024/02/22 06:07:17;;;;;;;1.40;0.20;;;;;;;5.16;100.00;97095.63;5055448;28;20047;-95
2024/02/22 06:09:56;;;;;;;1.85;0.20;;;;;;;5.24;100.00;97079.75;5073084;28;20032;-94
2024/02/22 06:12:35;;;;;;;2.88;0.22;;;;;;;5.25;100.00;97080.56;5062890;28;20478;-95
2024/02/22 06:16:07;;;;;;;4.85;2.47;;;;;;;5.29;100.00;97064.28;5071434;28;20036;-94
2024/02/22 06:18:58;;;;;;;2.50;1.13;;;;;;;5.27;100.00;97066.25;5065724;28;20031;-93
2024/02/22 06:21:37;;;;;;;1.90;0.20;;;;;;;5.30;100.00;97050.16;5065689;28;20047;-93
2024/02/22 06:24:22;;;;;;;3.63;0.22;;;;;;;5.40;100.00;97049.81;5064672;28;20082;-95
2024/02/22 06:27:19;;;;;;;3.55;0.35;;;;;;;5.42;100.00;97044.38;5064560;28;20122;-94
2024/02/22 06:29:59;;;;;;;0.10;0.10;;;;;;;5.37;100.00;97044.97;5066284;28;20126;-96
2024/02/22 06:32:37;;;;;;;0.25;0.10;;;;;;;5.35;100.00;97047.00;5078419;28;20058;-94
2024/02/22 06:35:13;;;;;;;5.35;0.90;;;;;;;5.30;100.00;97055.41;5079014;28;20039;-95
2024/02/22 06:38:04;;;;;;;1.45;0.30;;;;;;;5.27;100.00;97063.66;5063032;28;20032;-95
2024/02/22 06:41:07;;;;;;;2.33;0.38;;;;;;;5.23;100.00;97083.38;5057235;28;20085;-94
2024/02/22 06:43:39;;;;;;;1.98;0.22;;;;;;;5.08;100.00;97083.50;5080234;28;20066;-94
2024/02/22 06:46:27;;;;;;;0.85;0.30;;;;;;;5.11;100.00;97088.34;5061911;28;20039;-96
2024/02/22 06:49:01;;;;;;;6.13;0.60;;;;;;;5.00;100.00;97092.28;5064373;28;20103;-95
2024/02/22 06:51:52;;;;;;;4.63;1.08;;;;;;;5.02;100.00;97099.94;5073321;28;20032;-95
2024/02/22 06:54:52;;;;;;;6.65;0.68;;;;;;;5.01;100.00;97095.72;5066744;28;20106;-96
2024/02/22 06:58:26;;;;;;;0.98;0.30;;;;;;;4.96;100.00;97084.03;5084107;28;20035;-96
2024/02/22 07:01:33;;;;;;;1.50;0.40;;;;;;;4.96;100.00;97075.38;5059702;28;20048;-94
2024/02/22 07:04:47;;;;;;;;;;;;;;;;;;;;;
2024/02/22 07:08:10;;;;;;;2.33;0.50;;;;;;;5.02;100.00;97092.09;5073354;28;20036;-95
2024/02/22 07:11:05;;;;;;;4.70;1.52;;;;;;;4.95;100.00;97090.25;5060909;28;20035;-96
2024/02/22 07:13:59;;;;;;;4.05;0.43;;;;;;;4.92;100.00;97110.78;5072911;28;20114;-93
2024/02/22 07:16:51;;;;;;;2.97;0.60;;;;;;;4.96;100.00;97101.53;5064791;28;20040;-96
2024/02/22 07:19:21;;;;;;;2.47;0.55;;;;;;;5.00;100.00;97097.53;5065888;28;20043;-96
2024/02/22 07:21:53;;;;;;;3.13;0.50;;;;;;;5.00;100.00;97097.53;5067881;28;20071;-95
2024/02/22 07:25:22;;;;;;;;;;;;;;;;;;;;;
2024/02/22 07:44:24;;;;;;;4.00;0.88;;;;;;;5.04;100.00;97062.13;5053454;28;20050;-95
2024/02/22 07:47:08;;;;;;;4.50;0.63;;;;;;;5.18;100.00;97060.41;5013788;28;20045;-96
2024/02/22 07:49:38;;;;;;;5.18;0.50;;;;;;;5.17;100.00;97066.63;5027721;28;20476;-95
2024/02/22 07:52:23;;;;;;;4.03;0.60;;;;;;;5.25;100.00;97057.00;5009345;28;20060;-95
2024/02/22 07:54:49;;;;;;;3.80;0.40;;;;;;;5.21;100.00;97062.63;5014250;28;20041;-94
2024/02/22 07:57:15;;;;;;;10.90;1.27;;;;;;;5.25;100.00;97057.00;5016280;28;20477;-96
2024/02/22 07:59:41;;;;;;;6.85;0.50;;;;;;;5.30;100.00;97059.84;5022651;28;20041;-96
2024/02/22 08:02:07;;;;;;;2.83;0.38;;;;;;;5.26;100.00;97050.75;5006338;28;20073;-95
2024/02/22 08:04:34;;;;;;;3.50;0.40;;;;;;;5.31;100.00;97062.28;4996728;28;20033;-95
2024/02/22 08:07:19;;;;;;;1.98;0.20;;;;;;;5.34;100.00;97056.66;5031105;28;20038;-95
2024/02/22 08:09:46;;;;;;;1.50;0.40;;;;;;;5.28;100.00;97060.03;4997500;28;20037;-94
2024/02/22 08:12:16;;;;;;;3.25;0.20;;;;;;;5.29;100.00;97053.78;5017310;28;20040;-95
2024/02/22 08:14:45;;;;;;;4.82;0.75;;;;;;;5.22;100.00;97060.81;5027766;28;20034;-94
2024/02/22 08:17:25;;;;;;;5.88;0.63;;;;;;;5.21;100.00;97061.81;5027516;28;20119;-96
2024/02/22 08:19:52;;;;;;;4.18;0.40;;;;;;;5.07;100.00;97061.75;5013588;28;20048;-95
2024/02/22 08:22:21;;;;;;;5.50;0.70;;;;;;;5.06;100.00;97065.38;5029648;28;20033;-96
2024/02/22 08:24:47;;;;;;;4.05;0.75;;;;;;;5.01;100.00;97070.38;5007517;28;20124;-96
2024/02/22 08:27:13;;;;;;;3.97;0.40;;;;;;;5.01;100.00;97072.16;5021294;28;20378;-95
2024/02/22 08:29:39;;;;;;;2.42;0.40;;;;;;;4.99;100.00;97069.75;5029471;28;20112;-95
2024/02/22 08:32:09;;;;;;;3.90;0.45;;;;;;;5.04;100.00;97067.38;4999679;28;20037;-95
2024/02/22 08:34:37;;;;;;;1.60;0.50;;;;;;;5.00;100.00;97073.97;5036920;28;20114;-96
2024/02/22 08:37:25;;;;;;;3.65;0.50;;;;;;;5.09;100.00;97066.78;5056375;28;20029;-96
2024/02/22 08:39:51;;;;;;;6.00;1.02;;;;;;;5.03;100.00;97068.34;5024543;28;20037;-96
2024/02/22 08:42:42;;;;;;;2.85;0.73;;;;;;;5.13;100.00;97062.78;5021178;28;20663;-96
2024/02/22 08:45:09;;;;;;;3.25;0.70;;;;;;;5.08;100.00;97062.56;5043265;28;20026;-96
2024/02/22 08:47:35;;;;;;;5.60;0.57;;;;;;;5.14;100.00;97066.22;5072778;23;20049;-96
2024/02/22 08:50:04;;;;;;;3.90;0.50;;;;;;;5.16;100.00;97058.97;5062695;28;20469;-96
2024/02/22 08:52:30;;;;;;;2.28;0.40;;;;;;;5.16;100.00;97054.53;5046569;23;20053;-96
2024/02/22 08:54:57;;;;;;;7.82;0.52;;;;;;;5.27;100.00;97053.16;5044131;28;20037;-96
2024/02/22 08:57:23;;;;;;;4.05;0.57;;;;;;;5.26;100.00;97056.81;5033143;28;20029;-96
2024/02/22 08:59:49;;;;;;;5.65;0.73;;;;;;;5.30;100.00;97055.41;4996274;28;20086;-96
2024/02/22 09:02:15;;;;;;;1.40;0.40;;;;;;;5.31;100.00;97059.66;5003434;28;20033;-95
2024/02/22 09:04:40;;;;;;;8.07;0.90;;;;;;;5.30;100.00;97057.22;5031798;28;20055;-96
2024/02/22 09:07:06;;;;;;;9.30;0.70;;;;;;;5.30;100.00;97062.47;5016400;28;20485;-95
2024/02/22 09:09:32;;;;;;;2.65;0.93;;;;;;;5.29;100.00;97068.69;5050079;28;20492;-95
2024/02/22 09:11:58;;;;;;;2.90;0.40;;;;;;;5.28;100.00;97062.66;5035528;28;20037;-95
2024/02/22 09:14:25;;;;;;;4.75;0.40;;;;;;;5.29;100.00;97079.97;5006238;28;20044;-96
2024/02/22 09:16:51;;;;;;;9.30;1.52;;;;;;;5.29;100.00;97085.22;5017789;28;20032;-96
2024/02/22 09:19:17;;;;;;;4.63;0.80;;;;;;;5.29;100.00;97093.06;5008394;28;20041;-95
2024/02/22 09:21:46;;;;;;;7.68;0.73;;;;;;;5.32;100.00;97087.44;5035448;28;20025;-95
2024/02/22 09:24:12;;;;;;;8.93;1.75;;;;;;;5.29;100.00;97092.25;5017028;28;20120;-96
2024/02/22 09:26:38;;;;;;;5.47;0.75;;;;;;;5.26;100.00;97093.47;5020064;28;20132;-96
2024/02/22 09:29:04;;;;;;;5.60;0.77;;;;;;;5.21;100.00;97108.94;5043579;28;20050;-94
2024/02/22 09:31:29;;;;;;;9.27;1.17;;;;;;;5.08;100.00;97107.84;5035615;28;20029;-96
2024/02/22 09:33:55;;;;;;;3.05;0.73;;;;;;;4.84;100.00;97102.06;5023026;28;20041;-96
2024/02/22 09:36:21;;;;;;;10.38;1.88;;;;;;;4.68;100.00;97086.66;5018817;28;20063;-94
2024/02/22 09:38:47;;;;;;;2.97;0.57;;;;;;;4.58;100.00;97094.81;5035656;28;20067;-94
2024/02/22 09:41:13;;;;;;;2.10;0.40;;;;;;;4.49;100.00;97098.56;5068432;28;20438;-94
2024/02/22 09:43:40;;;;;;;4.57;0.50;;;;;;;4.41;100.00;97086.44;5045391;28;20061;-94
2024/02/22 09:46:07;;;;;;;3.63;0.57;;;;;;;4.39;100.00;97106.72;4998176;28;20041;-95
2024/02/22 09:48:33;;;;;;;1.52;0.20;;;;;;;4.38;100.00;97105.13;5013057;28;20066;-96
2024/02/22 09:50:59;;;;;;;2.28;0.50;;;;;;;4.38;100.00;97107.75;4998930;28;20037;-96
2024/02/22 09:53:27;;;;;;;2.58;0.32;;;;;;;4.40;100.00;97108.34;5035464;28;20139;-95
2024/02/22 09:55:54;;;;;;;2.63;0.38;;;;;;;4.39;100.00;97102.31;5034184;28;20111;-96
2024/02/22 09:58:21;;;;;;;0.93;0.20;;;;;;;4.42;100.00;97106.34;5032035;28;20377;-95
2024/02/22 10:00:47;;;;;;;5.18;0.50;;;;;;;4.41;100.00;97109.97;5017266;28;20029;-95
2024/02/22 10:03:13;;;;;;;6.70;0.47;;;;;;;4.47;100.00;97110.00;5018213;28;20032;-95
2024/02/22 10:05:39;;;;;;;3.90;0.40;;;;;;;4.47;100.00;97109.22;5049565;28;20040;-95
2024/02/22 10:08:13;;;;;;;0.70;0.20;;;;;;;4.58;100.00;97113.13;5024966;28;20375;-96
2024/02/22 10:10:44;;;;;;;1.17;0.22;;;;;;;4.57;100.00;97111.53;5025190;28;20048;-96
2024/02/22 10:13:22;;;;;;;2.15;0.32;;;;;;;4.72;100.00;97114.03;5018393;28;20039;-96
2024/02/22 10:15:49;;;;;;;2.03;0.30;;;;;;;4.68;100.00;97108.38;5033092;28;20052;-96
2024/02/22 10:18:25;;;;;;;1.17;0.20;;;;;;;4.83;100.00;97113.53;5018774;28;20092;-95
2024/02/22 10:20:51;;;;;;;1.30;0.32;;;;;;;4.77;100.00;97122.16;5019947;28;20044;-95
2024/02/22 10:23:18;;;;;;;4.47;0.65;;;;;;;4.78;100.00;97121.13;5005057;28;20040;-96
2024/02/22 10:25:44;;;;;;;4.97;0.45;;;;;;;4.87;100.00;97128.84;5032008;28;20037;-95
2024/02/22 10:28:14;;;;;;;1.45;0.30;;;;;;;4.99;100.00;97129.94;5049142;28;20064;-96
2024/02/22 10:30:40;;;;;;;4.43;0.60;;;;;;;5.07;100.00;97129.81;5018053;28;20036;-96
2024/02/22 10:33:09;;;;;;;4.53;0.40;;;;;;;5.14;100.00;97129.03;5050812;28;20044;-96
2024/02/22 10:35:36;;;;;;;3.47;0.60;;;;;;;5.25;100.00;97125.06;5047247;28;20485;-93
2024/02/22 10:38:07;;;;;;;2.08;0.43;;;;;;;5.32;100.00;97113.63;5034074;28;20037;-95
2024/02/22 10:40:34;;;;;;;5.40;0.65;;;;;;;5.42;100.00;97120.34;4994959;28;20142;-94
2024/02/22 10:43:02;;;;;;;3.08;0.60;;;;;;;5.61;100.00;97121.44;5037049;28;20039;-95
2024/02/22 10:45:28;;;;;;;4.43;0.60;;;;;;;5.75;100.00;97122.28;5035424;28;20093;-96
2024/02/22 10:47:55;;;;;;;2.15;0.70;;;;;;;5.95;100.00;97129.44;5043534;28;20045;-95
2024/02/22 10:50:27;;;;;;;4.63;0.60;;;;;;;6.07;100.00;97133.13;5003987;28;20067;-96
2024/02/22 10:52:53;;;;;;;7.22;0.93;;;;;;;6.12;100.00;97145.66;5004931;28;20060;-96
2024/02/22 10:55:24;;;;;;;1.65;0.35;;;;;;;6.12;100.00;97139.59;5029603;28;20029;-96
2024/02/22 10:57:52;;;;;;;5.10;0.68;;;;;;;6.12;100.00;97150.88;5016919;28;20033;-96
2024/02/22 11:00:18;;;;;;;3.88;0.60;;;;;;;6.10;100.00;97146.84;5013733;28;20128;-96
2024/02/22 11:02:45;;;;;;;2.92;0.60;;;;;;;6.10;100.00;97142.41;5013537;28;20045;-95
2024/02/22 11:05:12;;;;;;;5.55;1.13;;;;;;;6.07;100.00;97135.75;5031726;28;20297;-95
2024/02/22 11:07:49;;;;;;;5.15;0.70;;;;;;;6.08;100.00;97134.72;5020841;28;20075;-96
2024/02/22 11:10:15;;;;;;;5.35;1.17;;;;;;;6.02;100.00;97132.09;5005895;28;20509;-96
2024/02/22 11:12:45;;;;;;;2.88;0.60;;;;;;;6.23;100.00;97131.13;5015268;28;20037;-96
2024/02/22 11:15:11;;;;;;;7.25;0.95;;;;;;;6.24;100.00;97130.16;5032605;28;20041;-95
2024/02/22 11:17:39;;;;;;;6.60;1.00;;;;;;;6.28;100.00;97131.38;5022331;28;20094;-93
2024/02/22 11:20:11;;;;;;;8.45;1.05;;;;;;;6.38;100.00;97127.53;5017317;28;20067;-96
2024/02/22 11:22:37;;;;;;;4.05;0.90;;;;;;;6.49;100.00;97128.75;5031849;28;20037;-95
2024/02/22 11:25:09;;;;;;;8.48;1.30;;;;;;;6.62;100.00;97118.28;5014377;28;20040;-96
2024/02/22 11:27:38;;;;;;;9.50;0.60;;;;;;;6.66;100.00;97121.31;5024266;28;20400;-96
2024/02/22 11:30:15;;;;;;;5.55;0.60;;;;;;;6.62;100.00;97122.72;5015322;28;20497;-95
2024/02/22 11:32:41;;;;;;;9.95;1.10;;;;;;;6.60;100.00;97122.09;5032389;28;20120;-96
2024/02/22 11:35:07;;;;;;;5.43;0.73;;;;;;;6.59;100.00;97134.44;5037994;28;20112;-94
2024/02/22 11:37:33;;;;;;;5.85;0.93;;;;;;;6.62;100.00;97131.41;5006697;28;20045;-93
2024/02/22 11:39:59;;;;;;;3.78;0.63;;;;;;;6.61;100.00;97144.75;5033144;28;20051;-93
2024/02/22 11:42:26;;;;;;;4.05;0.60;;;;;;;6.42;100.00;97142.69;5034150;28;20493;-96
2024/02/22 11:44:53;;;;;;;5.53;1.08;;;;;;;6.17;100.00;97142.44;5048619;28;20044;-96
2024/02/22 11:47:19;;;;;;;4.43;0.77;;;;;;;5.97;100.00;97132.69;5048895;28;20032;-95
2024/02/22 11:49:45;;;;;;;4.90;0.63;;;;;;;5.90;100.00;97140.50;5016539;28;20029;-96
2024/02/22 11:52:14;;;;;;;6.03;0.60;;;;;;;5.83;100.00;97148.34;4992741;28;20049;-96
2024/02/22 11:54:49;;;;;;;2.80;0.50;;;;;;;5.74;100.00;97136.41;5046194;28;20025;-96
2024/02/22 11:57:15;;;;;;;3.90;0.30;;;;;;;5.54;100.00;97144.19;5020970;28;20028;-96
2024/02/22 11:59:45;;;;;;;1.90;0.45;;;;;;;5.25;100.00;97140.78;5023193;28;20520;-96
2024/02/22 12:02:16;;;;;;;1.13;0.30;;;;;;;5.02;100.00;97147.88;5007184;28;20029;-96
2024/02/22 12:04:42;;;;;;;3.45;0.20;;;;;;;4.86;100.00;97145.56;5030071;28;20029;-96
2024/02/22 12:07:08;;;;;;;4.85;0.40;;;;;;;4.70;100.00;97137.78;5048654;28;20167;-94
2024/02/22 12:09:34;;;;;;;3.03;0.50;;;;;;;4.62;100.00;97134.50;5029542;28;20175;-93
2024/02/22 12:12:01;;;;;;;1.17;0.20;;;;;;;4.70;100.00;97132.56;5033321;28;20111;-96
2024/02/22 12:14:27;;;;;;;2.15;0.45;;;;;;;4.89;100.00;97124.25;5036667;28;20040;-96
2024/02/22 12:16:57;;;;;;;0.68;0.20;;;;;;;5.05;100.00;97131.81;5040852;28;20096;-96
2024/02/22 12:19:23;;;;;;;7.68;0.47;;;;;;;5.14;100.00;97122.00;5059315;28;20044;-96
2024/02/22 12:21:51;;;;;;;3.58;0.40;;;;;;;5.33;100.00;97122.31;5014835;28;20047;-96
2024/02/22 12:24:20;;;;;;;2.47;0.50;;;;;;;5.48;100.00;97121.38;5036925;28;20040;-96
2024/02/22 12:26:52;;;;;;;5.07;0.95;;;;;;;5.57;100.00;97121.00;5010568;28;20051;-96
2024/02/22 12:29:19;;;;;;;4.20;0.47;;;;;;;5.63;100.00;97108.13;5041871;28;20037;-96
2024/02/22 12:31:45;;;;;;;6.05;0.63;;;;;;;5.74;100.00;97115.44;5007700;28;20033;-96
2024/02/22 12:34:14;;;;;;;4.68;0.50;;;;;;;5.86;100.00;97110.44;5012381;28;20043;-96
2024/02/22 12:36:45;;;;;;;4.63;0.77;;;;;;;5.98;100.00;97104.63;5040588;28;20029;-96
2024/02/22 12:39:30;;;;;;;8.15;0.63;;;;;;;6.08;100.00;97107.72;5019144;28;20126;-96
2024/02/22 12:42:00;;;;;;;3.08;0.63;;;;;;;5.96;100.00;97108.25;5033933;28;20041;-96
2024/02/22 12:44:29;;;;;;;7.65;0.52;;;;;;;5.79;100.00;97101.75;5044097;28;20181;-96
2024/02/22 12:46:58;;;;;;;2.72;0.90;;;;;;;5.69;100.00;97102.94;5036122;28;20052;-96
2024/02/22 12:49:25;;;;;;;2.67;0.50;;;;;;;5.68;100.00;97105.75;5036957;28;20032;-96
2024/02/22 12:51:54;;;;;;;1.98;0.40;;;;;;;5.73;100.00;97095.50;5040328;28;20049;-96
2024/02/22 12:54:26;;;;;;;2.95;0.30;;;;;;;5.89;100.00;97093.53;5024199;28;20037;-96
2024/02/22 12:57:05;;;;;;;5.22;1.05;;;;;;;6.01;100.00;97083.25;5070563;28;20033;-96
2024/02/22 12:59:31;;;;;;;4.45;0.47;;;;;;;6.09;100.00;97083.09;5045083;28;20025;-95
2024/02/22 13:01:57;;;;;;;5.13;0.50;;;;;;;6.20;100.00;97086.97;5042032;28;20037;-96
2024/02/22 13:04:24;;;;;;;2.10;0.20;;;;;;;6.26;100.00;97080.13;5039777;28;20036;-96
2024/02/22 13:07:46;;;;;;;2.67;0.30;;;;;;;6.27;100.00;97090.41;5004221;28;20481;-96
2024/02/22 13:10:53;;;;;;;2.00;0.30;;;;;;;6.39;100.00;97089.78;5029044;28;20033;-96
2024/02/22 13:14:06;;;;;;;3.58;0.85;;;;;;;6.33;100.00;97084.38;5044200;28;20052;-96
2024/02/22 13:16:50;;;;;;;3.55;0.68;;;;;;;6.48;100.00;97077.31;5030100;28;20029;-96
2024/02/22 13:19:22;;;;;;;1.73;0.50;;;;;;;6.53;100.00;97075.69;5032433;28;20159;-96
2024/02/22 13:21:48;;;;;;;5.32;0.70;;;;;;;6.51;100.00;97067.22;5037267;28;20039;-96
2024/02/22 13:24:14;;;;;;;1.48;0.30;;;;;;;6.62;100.00;97078.94;5017692;28;20496;-96
2024/02/22 13:26:41;;;;;;;2.55;0.50;;;;;;;6.79;100.00;97074.06;5029513;28;20045;-96
2024/02/22 13:29:07;;;;;;;4.78;0.85;;;;;;;6.92;100.00;97070.63;5018574;28;20025;-95
2024/02/22 13:31:33;;;;;;;6.28;0.60;;;;;;;6.95;100.00;97067.59;5022213;28;20045;-96
2024/02/22 13:33:59;;;;;;;2.65;0.60;;;;;;;6.95;100.00;97051.84;5026425;28;20048;-95
2024/02/22 13:36:38;;;;;;;3.72;0.73;;;;;;;7.17;100.00;97053.38;5018633;28;20493;-96
2024/02/22 13:39:35;;;;;;;5.53;0.68;;;;;;;7.34;100.00;97050.31;5031254;28;20037;-96
2024/02/22 13:42:22;;;;;;;2.78;0.60;;;;;;;7.41;100.00;97048.47;5025127;28;20033;-96
2024/02/22 13:45:20;;;;;;;2.95;0.52;;;;;;;7.42;100.00;97056.13;5026286;28;20109;-95
2024/02/22 13:47:46;;;;;;;2.97;0.77;;;;;;;7.49;100.00;97052.66;5027964;28;20071;-92
2024/02/22 13:50:12;;;;;;;5.18;0.45;;;;;;;7.67;100.00;97059.88;5029182;28;20095;-91
2024/02/22 13:52:42;;;;;;;6.55;0.68;;;;;;;7.73;100.00;97058.22;5019106;28;20120;-95
2024/02/22 13:55:10;;;;;;;4.82;0.80;;;;;;;7.75;100.00;97048.31;5036938;28;20063;-96
2024/02/22 13:57:37;;;;;;;4.50;1.85;;;;;;;7.84;100.00;97049.69;5039183;28;20063;-96
2024/02/22 14:00:06;;;;;;;6.18;0.70;;;;;;;7.89;100.00;97035.91;5039777;28;20036;-96
2024/02/22 14:02:35;;;;;;;4.68;0.60;;;;;;;7.92;100.00;97032.84;5054219;28;20037;-96
2024/02/22 14:05:01;;;;;;;2.17;0.50;;;;;;;8.02;100.00;97035.00;5023064;28;20040;-96
2024/02/22 14:07:27;;;;;;;5.63;0.75;;;;;;;8.11;100.00;97038.19;5059441;28;20032;-96
2024/02/22 14:09:53;;;;;;;2.17;0.65;;;;;;;8.14;100.00;97029.84;5035498;28;20059;-96
2024/02/22 14:12:19;;;;;;;3.38;0.47;;;;;;;8.19;100.00;97051.09;5047742;28;20123;-96
2024/02/22 14:14:45;;;;;;;3.22;0.50;;;;;;;8.15;100.00;97044.66;5033851;28;20067;-96
2024/02/22 14:17:11;;;;;;;6.47;0.80;;;;;;;8.08;100.00;97039.41;5023766;28;20044;-96
2024/02/22 14:19:37;;;;;;;2.97;0.55;;;;;;;8.09;100.00;97053.38;5026076;28;20057;-96